MDT,Max TemperatureF,Mean TemperatureF,Min TemperatureF,Max Dew PointF,MeanDew PointF,Min DewpointF,Max Humidity, Mean Humidity, Min Humidity, Max Sea Level PressureIn, Mean Sea Level PressureIn, Min Sea Level PressureIn, Max VisibilityMiles, Mean VisibilityMiles, Min VisibilityMiles, Max Wind SpeedMPH, Mean Wind SpeedMPH, Max Gust SpeedMPH,PrecipitationIn, CloudCover, Events, WindDirDegrees
2011-9-1,88,71,54,45,35,10,62,34,5,29.97,29.77,29.61,10,10,10,25,7,37,T,0,,282
2011-9-2,85,66,46,46,34,14,86,47,7,30.00,29.90,29.77,10,10,8,15,6,,0.00,0,,264
2011-9-3,70,57,43,34,30,28,62,42,22,30.22,30.14,30.04,10,10,10,9,5,17,0.00,0,,7
2011-9-4,77,60,42,34,30,26,62,41,19,30.23,30.11,29.99,10,10,10,9,5,,0.00,0,,281
2011-9-5,86,67,47,39,28,16,46,27,8,30.11,29.94,29.84,10,10,10,21,5,27,T,2,,261
2011-9-6,65,59,53,54,50,42,100,76,51,30.31,30.18,29.94,10,8,2,14,8,30,0.27,8,Rain,313
2011-9-7,77,64,51,47,40,36,66,44,22,30.43,30.29,30.22,10,10,7,13,5,16,0.03,2,Rain-Thunderstorm,270
2011-9-8,78,62,45,42,38,34,66,43,20,30.32,30.23,30.13,10,10,10,13,5,,0.00,0,,276
2011-9-9,78,64,49,39,34,27,56,36,15,30.19,30.12,30.06,10,10,10,13,5,16,0.00,0,,313
2011-9-10,80,64,47,37,32,28,54,35,16,30.14,30.07,29.99,10,10,10,14,6,,T,0,,265
2011-9-11,83,65,47,38,35,31,56,36,16,30.16,29.99,29.88,10,10,10,10,5,,0.00,1,,237
2011-9-12,79,65,51,43,39,34,59,40,20,30.21,30.05,29.95,10,10,9,20,7,36,0.00,2,Thunderstorm,245
2011-9-13,79,66,52,46,40,36,68,45,21,30.22,30.07,29.96,10,10,10,10,3,,T,2,Thunderstorm,360
2011-9-14,56,52,47,48,45,40,93,76,59,30.25,30.14,30.03,10,8,1,10,6,,0.32,7,Rain-Thunderstorm,306
2011-9-15,71,59,46,47,42,33,93,62,31,30.16,29.97,29.81,10,9,5,8,4,12,0.00,4,,189
2011-9-16,79,62,44,44,39,34,76,48,19,29.85,29.77,29.66,10,10,10,18,5,29,T,1,Rain,221
2011-9-17,71,60,49,48,35,21,77,47,16,30.01,29.84,29.73,10,10,5,17,8,29,0.04,4,Rain,251
2011-9-18,74,58,42,34,28,21,53,35,16,30.12,30.06,30.01,10,10,10,10,4,,0.00,0,,316
2011-9-19,77,60,43,37,32,28,65,42,18,30.11,30.00,29.85,10,10,10,23,9,38,0.00,1,,286
2011-9-20,62,52,41,37,29,26,66,48,29,30.22,30.15,30.06,10,10,10,13,5,,0.00,1,,149
2011-9-21,67,51,34,28,26,23,64,42,20,30.22,30.17,30.12,10,10,10,12,4,,0.00,0,,331
2011-9-22,79,59,38,33,26,20,60,36,11,30.21,30.12,30.03,10,10,10,14,3,,0.00,0,,315
2011-9-23,83,66,48,34,28,25,42,28,13,30.19,30.08,29.99,10,10,10,14,5,,0.00,0,,278
2011-9-24,84,69,53,34,29,25,39,26,12,30.06,29.97,29.89,10,10,10,14,3,18,0.00,0,,209
2011-9-25,85,67,48,37,29,23,56,35,13,29.91,29.80,29.69,10,10,8,18,6,24,0.00,0,,270
2011-9-26,82,66,49,38,30,22,35,26,17,29.98,29.88,29.74,10,10,10,14,5,23,0.00,0,,230
2011-9-27,85,67,48,37,29,23,46,28,10,30.06,29.97,29.88,10,10,10,12,4,18,0.00,0,,255
2011-9-28,86,69,51,38,30,25,39,25,11,30.12,29.97,29.88,10,10,10,10,4,16,0.00,0,,353
2011-9-29,68,58,47,39,33,30,60,42,24,30.35,30.24,30.15,10,10,10,10,4,,0.00,0,,95
2011-9-30,83,62,41,35,31,26,62,38,13,30.19,30.07,29.94,10,10,10,13,4,,0.00,0,,210